createdAt,value
2023-05-19T00:05:43.000Z,6.00
2023-05-19T00:25:45.000Z,5.30
2023-05-19T00:35:47.000Z,7.50
2023-05-19T00:45:48.000Z,6.30
2023-05-19T00:55:49.000Z,5.20
2023-05-19T01:05:51.000Z,6.10
2023-05-19T01:15:52.000Z,5.50
2023-05-19T01:25:54.000Z,5.40
2023-05-19T01:35:55.000Z,6.50
2023-05-19T01:55:58.000Z,5.40
2023-05-19T02:05:59.000Z,7.00
2023-05-19T02:16:01.000Z,7.20
2023-05-19T02:26:02.000Z,6.30
2023-05-19T02:36:03.000Z,6.40
2023-05-19T02:46:05.000Z,6.90
2023-05-19T02:56:06.000Z,6.70
2023-05-19T03:06:08.000Z,7.80
2023-05-19T03:26:11.000Z,7.20
2023-05-19T03:36:12.000Z,8.00
2023-05-19T03:46:14.000Z,7.30
2023-05-19T03:56:15.000Z,7.10
2023-05-19T04:06:17.000Z,7.40
2023-05-19T04:16:18.000Z,7.30
2023-05-19T04:26:20.000Z,6.60
2023-05-19T04:36:21.000Z,7.00
2023-05-19T04:56:24.000Z,6.20
2023-05-19T05:06:26.000Z,6.50
2023-05-19T05:16:27.000Z,7.40
2023-05-19T05:26:28.000Z,6.70
2023-05-19T05:36:30.000Z,6.20
2023-05-19T05:46:31.000Z,6.70
2023-05-19T05:56:33.000Z,7.00
2023-05-19T06:06:34.000Z,6.20
2023-05-19T06:26:36.000Z,6.10
2023-05-19T06:36:37.000Z,6.70
2023-05-19T06:46:38.000Z,6.30
2023-05-19T06:56:39.000Z,5.90
2023-05-19T07:06:40.000Z,6.00
2023-05-19T07:16:41.000Z,5.10
2023-05-19T07:26:42.000Z,6.70
2023-05-19T07:36:43.000Z,4.60
2023-05-19T07:56:44.000Z,5.70
2023-05-19T08:06:45.000Z,5.00
2023-05-19T08:16:46.000Z,5.10
2023-05-19T08:26:46.000Z,6.80
2023-05-19T08:36:47.000Z,6.40
2023-05-19T08:46:48.000Z,6.60
2023-05-19T08:56:48.000Z,4.40
2023-05-19T09:06:49.000Z,4.80
2023-05-19T09:26:50.000Z,4.70
2023-05-19T09:36:51.000Z,4.20
2023-05-19T09:46:51.000Z,4.40
2023-05-19T09:56:52.000Z,4.50
2023-05-19T10:06:53.000Z,4.30
2023-05-19T10:16:53.000Z,4.50
2023-05-19T10:26:54.000Z,4.60
2023-05-19T10:36:55.000Z,4.30
2023-05-19T10:56:56.000Z,4.30
2023-05-19T11:06:57.000Z,4.50
2023-05-19T11:16:58.000Z,4.30
2023-05-19T11:27:05.000Z,4.70
2023-05-19T11:36:59.000Z,5.10
2023-05-19T11:47:00.000Z,4.70
2023-05-19T11:57:00.000Z,5.00
2023-05-19T12:07:01.000Z,4.30
2023-05-19T12:27:02.000Z,5.00
2023-05-19T12:37:02.000Z,4.40
2023-05-19T12:47:03.000Z,4.40
2023-05-19T12:57:03.000Z,4.30
2023-05-19T13:07:04.000Z,4.50
2023-05-19T13:17:04.000Z,5.00
2023-05-19T13:27:05.000Z,4.40
2023-05-19T13:37:05.000Z,4.20
2023-05-19T13:57:06.000Z,4.40
2023-05-19T14:07:07.000Z,4.50
2023-05-19T14:17:07.000Z,4.00
2023-05-19T14:27:07.000Z,4.30
2023-05-19T14:37:08.000Z,4.00
2023-05-19T14:47:08.000Z,4.10
2023-05-19T14:57:09.000Z,3.60
2023-05-19T15:07:09.000Z,4.00
2023-05-19T15:27:10.000Z,4.10
2023-05-19T15:37:10.000Z,3.70
2023-05-19T15:47:10.000Z,4.50
2023-05-19T15:57:11.000Z,4.20
2023-05-19T16:07:11.000Z,4.50
2023-05-19T16:17:12.000Z,4.90
2023-05-19T16:27:13.000Z,4.30
2023-05-19T16:37:13.000Z,4.60
2023-05-19T16:57:14.000Z,4.20
2023-05-19T17:07:15.000Z,4.40
2023-05-19T17:17:16.000Z,4.00
2023-05-19T17:27:16.000Z,4.60
2023-05-19T17:37:17.000Z,5.20
2023-05-19T17:47:18.000Z,5.80
2023-05-19T17:57:19.000Z,5.30
2023-05-19T18:07:19.000Z,5.30
2023-05-19T18:27:21.000Z,5.30
2023-05-19T18:37:22.000Z,5.40
2023-05-19T18:47:23.000Z,6.60
2023-05-19T18:57:24.000Z,6.30
2023-05-19T19:07:24.000Z,6.30
2023-05-19T19:17:25.000Z,6.40
2023-05-19T19:27:26.000Z,6.90
2023-05-19T19:37:27.000Z,6.40
2023-05-19T20:12:47.000Z,6.60
2023-05-19T20:12:47.000Z,6.80
2023-05-19T20:22:47.000Z,6.50
2023-05-19T20:32:47.000Z,6.80
2023-05-19T20:42:47.000Z,8.30
2023-05-19T20:52:47.000Z,7.80
2023-05-19T21:02:47.000Z,9.20
2023-05-19T21:12:47.000Z,8.70
2023-05-19T21:22:47.000Z,9.00
2023-05-19T21:42:47.000Z,9.80
2023-05-19T21:52:47.000Z,9.80
2023-05-19T22:02:47.000Z,9.60
2023-05-19T22:12:47.000Z,11.40
2023-05-19T22:22:47.000Z,11.30
2023-05-19T22:32:48.000Z,11.80
2023-05-19T22:42:48.000Z,13.60
2023-05-19T22:52:48.000Z,11.10
2023-05-19T23:12:48.000Z,11.00
2023-05-19T23:22:48.000Z,10.50
2023-05-19T23:32:49.000Z,12.30
2023-05-19T23:42:49.000Z,12.60
2023-05-19T23:52:49.000Z,11.30
